メインページ
METAR-TAF:

METAR-TAF

空港 :

ヌメア国際空港, ニューカレドニア

緯度: 22-01S, 経度: 166-13E, 海抜: 16m

現時点の気象観測

当レポートは31分前の18:00(UTC)に作成
無風
気温 18°C
湿度 88%
気圧 1011 hPa
視程10km以上
1,500メートル以下は雲なし、積乱雲なし

METAR: NWWW 111800Z AUTO 00000KT CAVOK 18/16 Q1011 NOSIG

時間: 05:31 (18:31 UTC)

予報

当レポートは1時間31分前の17:00(UTC)に作成
予報は11日の 18時(UTC)から 12日の 18時(UTC)まで有効
変向風 2kt
視程10km以上
高度5000ftの雲は散在している
11日の 23時(UTC)から 12日の 01時(UTC)まで徐々に
南/南東の風 15kt、最大25ktの突風を伴う
12日の 07時(UTC)から 12日の 09時(UTC)まで徐々に
変向風 2kt

TAF: NWWW 111700Z 1118/1218 VRB02KT 9999 SCT050 BECMG 1123/1201 15015G25KT BECMG 1207/1209 VRB02KT

4,000以上の空港の気象観測と天気予報(METAR報とTAF報)

利用可能な観測所は地図上に黄色い丸と赤い丸で示す。

丸の上にカーソルを重ねると観測所名を参照できる。

次にクリックすると気象観測と天気予報を参照できる。

マップの切り替え:黒色「×」印の緑ボタンをクリックして拡大、「-」印の緑ボタンをクリックして縮小、緑色の三角印をクリックして隣りの地図に切り替え


METAR-TAF: